sensor_id;sensor_type;location;lat;lon;timestamp;P1;durP1;ratioP1;P2;durP2;ratioP2
40453;SDS011;26160;51.858;4.398;2023-02-20T00:01:20;28.03;;;12.70;;
40453;SDS011;26160;51.858;4.398;2023-02-20T00:03:48;27.57;;;11.77;;
40453;SDS011;26160;51.858;4.398;2023-02-20T00:06:14;27.60;;;13.57;;
40453;SDS011;26160;51.858;4.398;2023-02-20T00:08:43;29.83;;;13.70;;
40453;SDS011;26160;51.858;4.398;2023-02-20T00:11:09;29.43;;;14.07;;
40453;SDS011;26160;51.858;4.398;2023-02-20T00:13:35;26.70;;;13.83;;
40453;SDS011;26160;51.858;4.398;2023-02-20T00:16:01;30.30;;;13.93;;
40453;SDS011;26160;51.858;4.398;2023-02-20T00:18:28;33.33;;;15.17;;
40453;SDS011;26160;51.858;4.398;2023-02-20T00:20:54;27.17;;;13.03;;
40453;SDS011;26160;51.858;4.398;2023-02-20T00:23:20;31.97;;;15.30;;
40453;SDS011;26160;51.858;4.398;2023-02-20T00:25:46;26.50;;;14.03;;
40453;SDS011;26160;51.858;4.398;2023-02-20T00:28:13;33.07;;;15.83;;
40453;SDS011;26160;51.858;4.398;2023-02-20T00:30:39;41.97;;;15.87;;
40453;SDS011;26160;51.858;4.398;2023-02-20T00:33:05;31.80;;;15.53;;
40453;SDS011;26160;51.858;4.398;2023-02-20T00:35:31;34.10;;;17.30;;
40453;SDS011;26160;51.858;4.398;2023-02-20T00:37:58;37.93;;;17.77;;
40453;SDS011;26160;51.858;4.398;2023-02-20T00:40:24;38.83;;;17.13;;
40453;SDS011;26160;51.858;4.398;2023-02-20T00:42:51;32.60;;;15.93;;
40453;SDS011;26160;51.858;4.398;2023-02-20T00:45:30;39.80;;;17.03;;
40453;SDS011;26160;51.858;4.398;2023-02-20T00:48:02;42.60;;;18.53;;
40453;SDS011;26160;51.858;4.398;2023-02-20T00:50:28;44.00;;;19.53;;
40453;SDS011;26160;51.858;4.398;2023-02-20T00:52:54;41.37;;;18.00;;
40453;SDS011;26160;51.858;4.398;2023-02-20T00:55:20;41.03;;;18.53;;
40453;SDS011;26160;51.858;4.398;2023-02-20T00:57:46;47.03;;;20.93;;
40453;SDS011;26160;51.858;4.398;2023-02-20T01:00:20;43.20;;;21.10;;
40453;SDS011;26160;51.858;4.398;2023-02-20T01:02:51;40.90;;;21.37;;
40453;SDS011;26160;51.858;4.398;2023-02-20T01:05:19;61.73;;;22.80;;
40453;SDS011;26160;51.858;4.398;2023-02-20T01:07:45;54.30;;;23.53;;
40453;SDS011;26160;51.858;4.398;2023-02-20T01:10:11;46.70;;;24.37;;
40453;SDS011;26160;51.858;4.398;2023-02-20T01:12:40;53.30;;;25.73;;
40453;SDS011;26160;51.858;4.398;2023-02-20T01:15:07;63.97;;;27.30;;
40453;SDS011;26160;51.858;4.398;2023-02-20T01:17:35;58.03;;;27.47;;
40453;SDS011;26160;51.858;4.398;2023-02-20T01:26:47;69.77;;;27.93;;
40453;SDS011;26160;51.858;4.398;2023-02-20T01:29:14;60.27;;;29.23;;
40453;SDS011;26160;51.858;4.398;2023-02-20T01:31:45;63.03;;;29.47;;
40453;SDS011;26160;51.858;4.398;2023-02-20T01:34:15;55.40;;;29.93;;
40453;SDS011;26160;51.858;4.398;2023-02-20T01:36:46;59.83;;;29.03;;
40453;SDS011;26160;51.858;4.398;2023-02-20T01:39:15;57.13;;;29.73;;
40453;SDS011;26160;51.858;4.398;2023-02-20T01:41:42;60.80;;;31.20;;
40453;SDS011;26160;51.858;4.398;2023-02-20T01:44:15;67.63;;;31.77;;
40453;SDS011;26160;51.858;4.398;2023-02-20T01:46:46;57.83;;;30.17;;
40453;SDS011;26160;51.858;4.398;2023-02-20T01:49:18;59.53;;;28.60;;
40453;SDS011;26160;51.858;4.398;2023-02-20T01:52:10;56.93;;;29.60;;
40453;SDS011;26160;51.858;4.398;2023-02-20T01:54:42;62.72;;;28.95;;
40453;SDS011;26160;51.858;4.398;2023-02-20T01:57:16;55.42;;;28.05;;
40453;SDS011;26160;51.858;4.398;2023-02-20T01:59:46;55.13;;;25.07;;
40453;SDS011;26160;51.858;4.398;2023-02-20T02:02:14;53.83;;;26.43;;
40453;SDS011;26160;51.858;4.398;2023-02-20T02:04:40;61.90;;;27.90;;
40453;SDS011;26160;51.858;4.398;2023-02-20T02:07:11;54.73;;;28.13;;
40453;SDS011;26160;51.858;4.398;2023-02-20T02:09:53;63.87;;;27.43;;
40453;SDS011;26160;51.858;4.398;2023-02-20T02:12:27;53.17;;;26.43;;
40453;SDS011;26160;51.858;4.398;2023-02-20T02:14:54;50.37;;;26.60;;
40453;SDS011;26160;51.858;4.398;2023-02-20T02:29:03;47.03;;;25.70;;
40453;SDS011;26160;51.858;4.398;2023-02-20T02:40:20;58.20;;;27.25;;
40453;SDS011;26160;51.858;4.398;2023-02-20T02:45:40;60.43;;;26.83;;
40453;SDS011;26160;51.858;4.398;2023-02-20T02:48:16;52.53;;;26.77;;
40453;SDS011;26160;51.858;4.398;2023-02-20T02:51:07;53.37;;;25.73;;
40453;SDS011;26160;51.858;4.398;2023-02-20T02:53:37;59.00;;;27.77;;
40453;SDS011;26160;51.858;4.398;2023-02-20T02:56:03;55.97;;;28.67;;
40453;SDS011;26160;51.858;4.398;2023-02-20T02:58:46;55.00;;;27.75;;
40453;SDS011;26160;51.858;4.398;2023-02-20T03:01:16;56.53;;;27.17;;
40453;SDS011;26160;51.858;4.398;2023-02-20T03:03:44;65.87;;;29.73;;
40453;SDS011;26160;51.858;4.398;2023-02-20T03:06:24;56.67;;;29.73;;
40453;SDS011;26160;51.858;4.398;2023-02-20T03:11:28;68.37;;;31.37;;
40453;SDS011;26160;51.858;4.398;2023-02-20T03:19:38;64.83;;;32.87;;
40453;SDS011;26160;51.858;4.398;2023-02-20T03:22:27;66.90;;;35.10;;
40453;SDS011;26160;51.858;4.398;2023-02-20T03:24:56;66.57;;;34.30;;
40453;SDS011;26160;51.858;4.398;2023-02-20T03:27:30;72.07;;;36.90;;
40453;SDS011;26160;51.858;4.398;2023-02-20T03:30:12;75.90;;;35.67;;
40453;SDS011;26160;51.858;4.398;2023-02-20T03:32:50;76.40;;;38.67;;
40453;SDS011;26160;51.858;4.398;2023-02-20T03:35:41;80.10;;;37.92;;
40453;SDS011;26160;51.858;4.398;2023-02-20T03:38:28;85.37;;;37.40;;
40453;SDS011;26160;51.858;4.398;2023-02-20T03:41:17;68.57;;;36.10;;
40453;SDS011;26160;51.858;4.398;2023-02-20T03:44:05;68.40;;;34.80;;
40453;SDS011;26160;51.858;4.398;2023-02-20T03:46:34;63.37;;;36.20;;
40453;SDS011;26160;51.858;4.398;2023-02-20T03:49:04;70.80;;;33.13;;
40453;SDS011;26160;51.858;4.398;2023-02-20T03:51:34;64.47;;;32.23;;
40453;SDS011;26160;51.858;4.398;2023-02-20T03:54:01;64.73;;;28.97;;
40453;SDS011;26160;51.858;4.398;2023-02-20T03:56:33;55.63;;;28.53;;
40453;SDS011;26160;51.858;4.398;2023-02-20T03:59:22;62.13;;;30.77;;
40453;SDS011;26160;51.858;4.398;2023-02-20T04:01:55;63.17;;;27.73;;
40453;SDS011;26160;51.858;4.398;2023-02-20T04:04:28;59.90;;;26.60;;
40453;SDS011;26160;51.858;4.398;2023-02-20T04:06:59;54.70;;;25.70;;
40453;SDS011;26160;51.858;4.398;2023-02-20T04:09:32;49.53;;;25.13;;
40453;SDS011;26160;51.858;4.398;2023-02-20T04:12:02;52.73;;;23.30;;
40453;SDS011;26160;51.858;4.398;2023-02-20T04:14:41;56.03;;;23.07;;
40453;SDS011;26160;51.858;4.398;2023-02-20T04:17:10;49.77;;;19.13;;
40453;SDS011;26160;51.858;4.398;2023-02-20T04:19:40;42.83;;;18.33;;
40453;SDS011;26160;51.858;4.398;2023-02-20T04:22:07;44.70;;;18.30;;
40453;SDS011;26160;51.858;4.398;2023-02-20T04:24:39;47.60;;;17.73;;
40453;SDS011;26160;51.858;4.398;2023-02-20T04:27:09;44.13;;;15.50;;
40453;SDS011;26160;51.858;4.398;2023-02-20T04:29:36;40.93;;;15.43;;
40453;SDS011;26160;51.858;4.398;2023-02-20T04:32:04;37.97;;;16.23;;
40453;SDS011;26160;51.858;4.398;2023-02-20T04:34:30;40.93;;;16.57;;
40453;SDS011;26160;51.858;4.398;2023-02-20T04:37:03;52.90;;;16.90;;
40453;SDS011;26160;51.858;4.398;2023-02-20T04:39:32;37.77;;;15.63;;
40453;SDS011;26160;51.858;4.398;2023-02-20T04:41:58;44.93;;;15.70;;
40453;SDS011;26160;51.858;4.398;2023-02-20T04:44:25;34.53;;;14.90;;
40453;SDS011;26160;51.858;4.398;2023-02-20T04:47:02;48.67;;;16.70;;
40453;SDS011;26160;51.858;4.398;2023-02-20T04:49:30;35.20;;;15.10;;
40453;SDS011;26160;51.858;4.398;2023-02-20T04:51:57;36.03;;;13.57;;
40453;SDS011;26160;51.858;4.398;2023-02-20T04:54:23;40.30;;;14.50;;
40453;SDS011;26160;51.858;4.398;2023-02-20T04:56:49;45.97;;;14.33;;
40453;SDS011;26160;51.858;4.398;2023-02-20T04:59:16;39.63;;;14.07;;
40453;SDS011;26160;51.858;4.398;2023-02-20T05:01:42;38.70;;;13.33;;
40453;SDS011;26160;51.858;4.398;2023-02-20T05:04:13;50.83;;;13.83;;
40453;SDS011;26160;51.858;4.398;2023-02-20T05:06:41;42.67;;;13.57;;
40453;SDS011;26160;51.858;4.398;2023-02-20T05:09:08;37.67;;;13.57;;
40453;SDS011;26160;51.858;4.398;2023-02-20T05:11:36;41.83;;;13.63;;
40453;SDS011;26160;51.858;4.398;2023-02-20T05:14:03;49.73;;;14.67;;
40453;SDS011;26160;51.858;4.398;2023-02-20T05:16:30;33.13;;;13.10;;
40453;SDS011;26160;51.858;4.398;2023-02-20T05:18:56;37.93;;;13.33;;
40453;SDS011;26160;51.858;4.398;2023-02-20T05:21:22;36.50;;;13.27;;
40453;SDS011;26160;51.858;4.398;2023-02-20T05:24:07;38.10;;;13.97;;
40453;SDS011;26160;51.858;4.398;2023-02-20T05:26:34;38.43;;;13.73;;
40453;SDS011;26160;51.858;4.398;2023-02-20T05:29:00;43.33;;;13.83;;
40453;SDS011;26160;51.858;4.398;2023-02-20T05:31:27;37.37;;;11.97;;
40453;SDS011;26160;51.858;4.398;2023-02-20T05:33:53;35.27;;;11.63;;
40453;SDS011;26160;51.858;4.398;2023-02-20T05:36:19;37.77;;;11.43;;
40453;SDS011;26160;51.858;4.398;2023-02-20T05:38:45;36.97;;;11.50;;
40453;SDS011;26160;51.858;4.398;2023-02-20T05:41:14;33.30;;;10.53;;
40453;SDS011;26160;51.858;4.398;2023-02-20T05:43:40;37.77;;;10.37;;
40453;SDS011;26160;51.858;4.398;2023-02-20T05:46:07;34.47;;;11.40;;
40453;SDS011;26160;51.858;4.398;2023-02-20T05:48:33;37.70;;;10.47;;
40453;SDS011;26160;51.858;4.398;2023-02-20T05:50:59;35.83;;;11.83;;
40453;SDS011;26160;51.858;4.398;2023-02-20T05:53:28;40.17;;;10.07;;
40453;SDS011;26160;51.858;4.398;2023-02-20T05:55:55;33.90;;;9.43;;
40453;SDS011;26160;51.858;4.398;2023-02-20T05:58:24;35.93;;;10.63;;
40453;SDS011;26160;51.858;4.398;2023-02-20T06:00:51;35.80;;;9.53;;
40453;SDS011;26160;51.858;4.398;2023-02-20T06:03:18;28.87;;;9.47;;
40453;SDS011;26160;51.858;4.398;2023-02-20T06:05:44;36.87;;;10.30;;
40453;SDS011;26160;51.858;4.398;2023-02-20T06:08:17;35.43;;;10.53;;
40453;SDS011;26160;51.858;4.398;2023-02-20T06:10:56;32.10;;;10.20;;
40453;SDS011;26160;51.858;4.398;2023-02-20T06:13:22;36.00;;;11.03;;
40453;SDS011;26160;51.858;4.398;2023-02-20T06:15:48;36.77;;;10.37;;
40453;SDS011;26160;51.858;4.398;2023-02-20T06:18:14;33.57;;;9.83;;
40453;SDS011;26160;51.858;4.398;2023-02-20T06:20:48;40.17;;;9.80;;
40453;SDS011;26160;51.858;4.398;2023-02-20T06:23:14;41.42;;;10.55;;
40453;SDS011;26160;51.858;4.398;2023-02-20T06:25:40;33.17;;;9.80;;
40453;SDS011;26160;51.858;4.398;2023-02-20T06:28:06;31.80;;;8.97;;
40453;SDS011;26160;51.858;4.398;2023-02-20T06:30:32;33.30;;;9.47;;
40453;SDS011;26160;51.858;4.398;2023-02-20T06:32:58;34.77;;;9.70;;
40453;SDS011;26160;51.858;4.398;2023-02-20T06:35:38;32.20;;;10.27;;
40453;SDS011;26160;51.858;4.398;2023-02-20T06:41:59;28.23;;;8.87;;
40453;SDS011;26160;51.858;4.398;2023-02-20T06:44:40;39.07;;;10.87;;
40453;SDS011;26160;51.858;4.398;2023-02-20T06:47:06;31.27;;;9.43;;
40453;SDS011;26160;51.858;4.398;2023-02-20T06:49:34;32.30;;;10.97;;
40453;SDS011;26160;51.858;4.398;2023-02-20T06:55:19;28.17;;;8.70;;
40453;SDS011;26160;51.858;4.398;2023-02-20T06:58:32;28.90;;;9.63;;
40453;SDS011;26160;51.858;4.398;2023-02-20T07:01:09;30.30;;;8.70;;
40453;SDS011;26160;51.858;4.398;2023-02-20T07:06:51;33.10;;;9.20;;
40453;SDS011;26160;51.858;4.398;2023-02-20T07:09:40;22.77;;;8.67;;
40453;SDS011;26160;51.858;4.398;2023-02-20T07:12:07;27.03;;;9.03;;
40453;SDS011;26160;51.858;4.398;2023-02-20T07:37:38;33.70;;;10.83;;
40453;SDS011;26160;51.858;4.398;2023-02-20T07:40:11;24.70;;;10.03;;
40453;SDS011;26160;51.858;4.398;2023-02-20T07:45:03;30.97;;;11.00;;
40453;SDS011;26160;51.858;4.398;2023-02-20T07:47:30;25.43;;;10.03;;
40453;SDS011;26160;51.858;4.398;2023-02-20T07:49:56;38.87;;;13.27;;
40453;SDS011;26160;51.858;4.398;2023-02-20T07:52:22;40.80;;;11.70;;
40453;SDS011;26160;51.858;4.398;2023-02-20T07:54:49;38.57;;;10.57;;
40453;SDS011;26160;51.858;4.398;2023-02-20T07:59:57;30.52;;;11.43;;
40453;SDS011;26160;51.858;4.398;2023-02-20T08:07:51;19.03;;;9.07;;
40453;SDS011;26160;51.858;4.398;2023-02-20T08:15:37;26.87;;;11.20;;
40453;SDS011;26160;51.858;4.398;2023-02-20T08:18:10;33.73;;;11.57;;
40453;SDS011;26160;51.858;4.398;2023-02-20T08:20:36;26.57;;;10.40;;
40453;SDS011;26160;51.858;4.398;2023-02-20T08:23:05;26.03;;;9.43;;
40453;SDS011;26160;51.858;4.398;2023-02-20T08:25:38;27.13;;;10.27;;
40453;SDS011;26160;51.858;4.398;2023-02-20T08:28:13;42.87;;;10.93;;
40453;SDS011;26160;51.858;4.398;2023-02-20T08:30:40;28.00;;;10.60;;
40453;SDS011;26160;51.858;4.398;2023-02-20T08:40:48;31.77;;;10.90;;
40453;SDS011;26160;51.858;4.398;2023-02-20T08:43:14;29.67;;;11.43;;
40453;SDS011;26160;51.858;4.398;2023-02-20T08:45:40;35.53;;;11.20;;
40453;SDS011;26160;51.858;4.398;2023-02-20T08:58:53;32.03;;;12.10;;
40453;SDS011;26160;51.858;4.398;2023-02-20T09:10:44;25.20;;;10.90;;
40453;SDS011;26160;51.858;4.398;2023-02-20T09:13:25;25.40;;;10.30;;
40453;SDS011;26160;51.858;4.398;2023-02-20T09:15:51;27.37;;;10.80;;
40453;SDS011;26160;51.858;4.398;2023-02-20T09:18:17;26.40;;;11.20;;
40453;SDS011;26160;51.858;4.398;2023-02-20T09:31:06;26.30;;;11.30;;
40453;SDS011;26160;51.858;4.398;2023-02-20T09:33:32;26.60;;;11.80;;
40453;SDS011;26160;51.858;4.398;2023-02-20T09:35:58;28.50;;;12.23;;
40453;SDS011;26160;51.858;4.398;2023-02-20T09:44:24;26.23;;;11.70;;
40453;SDS011;26160;51.858;4.398;2023-02-20T09:47:02;28.57;;;12.00;;
40453;SDS011;26160;51.858;4.398;2023-02-20T09:49:47;27.65;;;11.00;;
40453;SDS011;26160;51.858;4.398;2023-02-20T09:52:14;21.20;;;9.33;;
40453;SDS011;26160;51.858;4.398;2023-02-20T09:57:20;23.60;;;9.57;;
40453;SDS011;26160;51.858;4.398;2023-02-20T09:59:52;17.73;;;9.40;;
40453;SDS011;26160;51.858;4.398;2023-02-20T10:02:30;21.67;;;10.95;;
40453;SDS011;26160;51.858;4.398;2023-02-20T10:05:01;15.63;;;8.47;;
40453;SDS011;26160;51.858;4.398;2023-02-20T10:07:35;22.13;;;9.37;;
40453;SDS011;26160;51.858;4.398;2023-02-20T10:15:44;19.40;;;8.13;;
40453;SDS011;26160;51.858;4.398;2023-02-20T10:23:51;18.70;;;7.07;;
40453;SDS011;26160;51.858;4.398;2023-02-20T10:26:25;13.20;;;5.70;;
40453;SDS011;26160;51.858;4.398;2023-02-20T10:29:05;14.73;;;5.60;;
40453;SDS011;26160;51.858;4.398;2023-02-20T10:31:51;20.17;;;5.73;;
40453;SDS011;26160;51.858;4.398;2023-02-20T10:34:28;9.97;;;4.70;;
40453;SDS011;26160;51.858;4.398;2023-02-20T10:37:06;15.67;;;5.40;;
40453;SDS011;26160;51.858;4.398;2023-02-20T10:39:36;17.60;;;5.27;;
40453;SDS011;26160;51.858;4.398;2023-02-20T10:42:29;12.50;;;4.63;;
40453;SDS011;26160;51.858;4.398;2023-02-20T10:45:18;15.77;;;4.23;;
40453;SDS011;26160;51.858;4.398;2023-02-20T10:48:05;10.37;;;3.93;;
40453;SDS011;26160;51.858;4.398;2023-02-20T10:50:53;13.67;;;4.40;;
40453;SDS011;26160;51.858;4.398;2023-02-20T10:53:46;12.67;;;4.03;;
40453;SDS011;26160;51.858;4.398;2023-02-20T10:56:21;19.47;;;4.33;;
40453;SDS011;26160;51.858;4.398;2023-02-20T11:01:43;17.30;;;3.90;;
40453;SDS011;26160;51.858;4.398;2023-02-20T11:06:53;16.83;;;4.20;;
40453;SDS011;26160;51.858;4.398;2023-02-20T11:09:27;17.30;;;3.77;;
40453;SDS011;26160;51.858;4.398;2023-02-20T11:11:54;15.97;;;4.20;;
40453;SDS011;26160;51.858;4.398;2023-02-20T11:14:23;16.90;;;4.23;;
40453;SDS011;26160;51.858;4.398;2023-02-20T11:17:11;19.40;;;4.20;;
40453;SDS011;26160;51.858;4.398;2023-02-20T11:19:45;16.03;;;4.00;;
40453;SDS011;26160;51.858;4.398;2023-02-20T11:22:13;11.05;;;3.45;;
40453;SDS011;26160;51.858;4.398;2023-02-20T11:24:41;16.37;;;4.43;;
40453;SDS011;26160;51.858;4.398;2023-02-20T11:27:12;12.33;;;3.23;;
40453;SDS011;26160;51.858;4.398;2023-02-20T11:32:24;16.47;;;4.47;;
40453;SDS011;26160;51.858;4.398;2023-02-20T11:37:40;11.13;;;3.20;;
40453;SDS011;26160;51.858;4.398;2023-02-20T11:42:57;14.67;;;4.00;;
40453;SDS011;26160;51.858;4.398;2023-02-20T11:45:39;16.95;;;4.07;;
40453;SDS011;26160;51.858;4.398;2023-02-20T11:53:09;14.32;;;3.60;;
40453;SDS011;26160;51.858;4.398;2023-02-20T11:55:49;13.23;;;4.25;;
40453;SDS011;26160;51.858;4.398;2023-02-20T11:58:30;14.33;;;3.70;;
40453;SDS011;26160;51.858;4.398;2023-02-20T12:00:57;15.27;;;4.38;;
40453;SDS011;26160;51.858;4.398;2023-02-20T12:03:25;9.97;;;3.37;;
40453;SDS011;26160;51.858;4.398;2023-02-20T12:05:53;14.37;;;4.23;;
40453;SDS011;26160;51.858;4.398;2023-02-20T12:08:30;13.20;;;4.20;;
40453;SDS011;26160;51.858;4.398;2023-02-20T12:11:23;15.77;;;3.67;;
40453;SDS011;26160;51.858;4.398;2023-02-20T12:13:53;15.33;;;4.40;;
40453;SDS011;26160;51.858;4.398;2023-02-20T12:16:27;17.73;;;4.23;;
40453;SDS011;26160;51.858;4.398;2023-02-20T12:27:25;18.90;;;4.50;;
40453;SDS011;26160;51.858;4.398;2023-02-20T12:36:27;12.33;;;3.83;;
40453;SDS011;26160;51.858;4.398;2023-02-20T12:41:55;10.43;;;3.43;;
40453;SDS011;26160;51.858;4.398;2023-02-20T12:44:32;15.97;;;3.93;;
40453;SDS011;26160;51.858;4.398;2023-02-20T12:56:18;7.70;;;3.17;;
40453;SDS011;26160;51.858;4.398;2023-02-20T13:01:33;12.73;;;3.83;;
40453;SDS011;26160;51.858;4.398;2023-02-20T13:04:10;13.80;;;4.53;;
40453;SDS011;26160;51.858;4.398;2023-02-20T13:07:02;11.03;;;3.43;;
40453;SDS011;26160;51.858;4.398;2023-02-20T13:09:43;8.33;;;3.73;;
40453;SDS011;26160;51.858;4.398;2023-02-20T13:12:18;11.83;;;3.93;;
40453;SDS011;26160;51.858;4.398;2023-02-20T13:15:01;11.50;;;3.93;;
40453;SDS011;26160;51.858;4.398;2023-02-20T13:19:56;11.70;;;3.77;;
40453;SDS011;26160;51.858;4.398;2023-02-20T13:22:23;12.00;;;3.43;;
40453;SDS011;26160;51.858;4.398;2023-02-20T13:24:50;9.80;;;3.87;;
40453;SDS011;26160;51.858;4.398;2023-02-20T13:27:29;15.90;;;4.10;;
40453;SDS011;26160;51.858;4.398;2023-02-20T13:29:57;10.30;;;3.80;;
40453;SDS011;26160;51.858;4.398;2023-02-20T13:32:44;9.93;;;3.90;;
40453;SDS011;26160;51.858;4.398;2023-02-20T13:38:15;12.90;;;4.40;;
40453;SDS011;26160;51.858;4.398;2023-02-20T13:51:36;7.60;;;4.30;;
40453;SDS011;26160;51.858;4.398;2023-02-20T13:56:17;7.63;;;3.90;;
40453;SDS011;26160;51.858;4.398;2023-02-20T13:58:45;8.80;;;3.70;;
40453;SDS011;26160;51.858;4.398;2023-02-20T14:01:13;11.03;;;3.93;;
40453;SDS011;26160;51.858;4.398;2023-02-20T14:03:39;10.45;;;4.75;;
40453;SDS011;26160;51.858;4.398;2023-02-20T14:06:07;10.43;;;4.33;;
40453;SDS011;26160;51.858;4.398;2023-02-20T14:08:44;7.82;;;3.75;;
40453;SDS011;26160;51.858;4.398;2023-02-20T14:11:25;6.80;;;3.23;;
40453;SDS011;26160;51.858;4.398;2023-02-20T14:13:55;7.93;;;3.67;;
40453;SDS011;26160;51.858;4.398;2023-02-20T14:16:27;9.18;;;4.03;;
40453;SDS011;26160;51.858;4.398;2023-02-20T14:18:58;11.43;;;4.20;;
40453;SDS011;26160;51.858;4.398;2023-02-20T14:21:26;7.63;;;4.30;;
40453;SDS011;26160;51.858;4.398;2023-02-20T14:23:54;7.20;;;4.23;;
40453;SDS011;26160;51.858;4.398;2023-02-20T14:26:22;9.00;;;4.10;;
40453;SDS011;26160;51.858;4.398;2023-02-20T14:28:51;12.07;;;4.22;;
40453;SDS011;26160;51.858;4.398;2023-02-20T14:31:21;10.40;;;3.72;;
40453;SDS011;26160;51.858;4.398;2023-02-20T14:34:06;12.40;;;4.07;;
40453;SDS011;26160;51.858;4.398;2023-02-20T14:42:48;7.83;;;3.57;;
40453;SDS011;26160;51.858;4.398;2023-02-20T14:45:15;8.77;;;3.97;;
40453;SDS011;26160;51.858;4.398;2023-02-20T14:50:20;8.90;;;4.20;;
40453;SDS011;26160;51.858;4.398;2023-02-20T14:55:27;9.30;;;4.37;;
40453;SDS011;26160;51.858;4.398;2023-02-20T14:57:53;7.90;;;3.93;;
40453;SDS011;26160;51.858;4.398;2023-02-20T15:00:24;7.40;;;4.10;;
40453;SDS011;26160;51.858;4.398;2023-02-20T15:02:58;8.00;;;3.53;;
40453;SDS011;26160;51.858;4.398;2023-02-20T15:05:31;9.87;;;3.80;;
40453;SDS011;26160;51.858;4.398;2023-02-20T15:07:59;14.47;;;4.37;;
40453;SDS011;26160;51.858;4.398;2023-02-20T15:10:33;12.23;;;3.93;;
40453;SDS011;26160;51.858;4.398;2023-02-20T15:13:08;8.30;;;3.77;;
40453;SDS011;26160;51.858;4.398;2023-02-20T15:15:36;11.77;;;3.97;;
40453;SDS011;26160;51.858;4.398;2023-02-20T15:18:09;8.53;;;4.07;;
40453;SDS011;26160;51.858;4.398;2023-02-20T15:20:40;6.20;;;3.63;;
40453;SDS011;26160;51.858;4.398;2023-02-20T15:23:24;9.30;;;4.33;;
40453;SDS011;26160;51.858;4.398;2023-02-20T15:25:52;14.40;;;4.43;;
40453;SDS011;26160;51.858;4.398;2023-02-20T15:33:36;10.43;;;4.37;;
40453;SDS011;26160;51.858;4.398;2023-02-20T15:36:17;11.03;;;4.97;;
40453;SDS011;26160;51.858;4.398;2023-02-20T15:38:46;10.35;;;4.68;;
40453;SDS011;26160;51.858;4.398;2023-02-20T15:41:12;16.17;;;5.60;;
40453;SDS011;26160;51.858;4.398;2023-02-20T15:43:38;7.70;;;4.40;;
40453;SDS011;26160;51.858;4.398;2023-02-20T15:46:04;9.33;;;4.33;;
40453;SDS011;26160;51.858;4.398;2023-02-20T15:48:30;8.80;;;4.37;;
40453;SDS011;26160;51.858;4.398;2023-02-20T15:50:56;13.27;;;4.97;;
40453;SDS011;26160;51.858;4.398;2023-02-20T15:53:23;11.80;;;5.30;;
40453;SDS011;26160;51.858;4.398;2023-02-20T15:55:54;10.80;;;5.53;;
40453;SDS011;26160;51.858;4.398;2023-02-20T15:58:24;12.00;;;5.60;;
40453;SDS011;26160;51.858;4.398;2023-02-20T16:00:58;11.00;;;5.43;;
40453;SDS011;26160;51.858;4.398;2023-02-20T16:03:25;8.77;;;5.00;;
40453;SDS011;26160;51.858;4.398;2023-02-20T16:05:53;7.83;;;4.90;;
40453;SDS011;26160;51.858;4.398;2023-02-20T16:08:20;8.83;;;5.67;;
40453;SDS011;26160;51.858;4.398;2023-02-20T16:10:47;13.90;;;6.00;;
40453;SDS011;26160;51.858;4.398;2023-02-20T16:13:33;10.07;;;5.43;;
40453;SDS011;26160;51.858;4.398;2023-02-20T16:16:18;13.97;;;5.77;;
40453;SDS011;26160;51.858;4.398;2023-02-20T16:18:54;13.00;;;5.40;;
40453;SDS011;26160;51.858;4.398;2023-02-20T16:21:21;16.90;;;6.67;;
40453;SDS011;26160;51.858;4.398;2023-02-20T16:23:47;13.97;;;5.63;;
40453;SDS011;26160;51.858;4.398;2023-02-20T16:26:17;11.90;;;6.27;;
40453;SDS011;26160;51.858;4.398;2023-02-20T16:29:05;15.45;;;5.63;;
40453;SDS011;26160;51.858;4.398;2023-02-20T16:34:20;21.07;;;5.77;;
40453;SDS011;26160;51.858;4.398;2023-02-20T16:36:48;18.53;;;7.87;;
40453;SDS011;26160;51.858;4.398;2023-02-20T16:41:52;14.00;;;6.80;;
40453;SDS011;26160;51.858;4.398;2023-02-20T16:44:41;17.87;;;7.13;;
40453;SDS011;26160;51.858;4.398;2023-02-20T16:47:14;17.77;;;7.90;;
40453;SDS011;26160;51.858;4.398;2023-02-20T16:49:42;18.17;;;7.72;;
40453;SDS011;26160;51.858;4.398;2023-02-20T16:52:15;15.10;;;8.63;;
40453;SDS011;26160;51.858;4.398;2023-02-20T16:54:50;19.20;;;8.17;;
40453;SDS011;26160;51.858;4.398;2023-02-20T16:57:18;18.30;;;7.67;;
40453;SDS011;26160;51.858;4.398;2023-02-20T16:59:49;16.53;;;8.47;;
40453;SDS011;26160;51.858;4.398;2023-02-20T17:02:26;25.27;;;8.50;;
40453;SDS011;26160;51.858;4.398;2023-02-20T17:04:54;19.27;;;7.97;;
40453;SDS011;26160;51.858;4.398;2023-02-20T17:07:22;21.03;;;9.27;;
40453;SDS011;26160;51.858;4.398;2023-02-20T17:09:49;19.30;;;8.27;;
40453;SDS011;26160;51.858;4.398;2023-02-20T17:12:17;19.67;;;7.73;;
40453;SDS011;26160;51.858;4.398;2023-02-20T17:14:45;19.07;;;7.67;;
40453;SDS011;26160;51.858;4.398;2023-02-20T17:17:12;12.77;;;6.33;;
40453;SDS011;26160;51.858;4.398;2023-02-20T17:19:39;16.87;;;6.83;;
40453;SDS011;26160;51.858;4.398;2023-02-20T17:22:06;17.53;;;7.00;;
40453;SDS011;26160;51.858;4.398;2023-02-20T17:24:33;11.97;;;6.20;;
40453;SDS011;26160;51.858;4.398;2023-02-20T17:27:00;20.30;;;7.67;;
40453;SDS011;26160;51.858;4.398;2023-02-20T17:34:43;23.40;;;8.00;;
40453;SDS011;26160;51.858;4.398;2023-02-20T17:37:25;18.83;;;7.90;;
40453;SDS011;26160;51.858;4.398;2023-02-20T17:40:02;19.57;;;7.10;;
40453;SDS011;26160;51.858;4.398;2023-02-20T17:42:29;20.93;;;7.60;;
40453;SDS011;26160;51.858;4.398;2023-02-20T17:44:56;15.13;;;8.37;;
40453;SDS011;26160;51.858;4.398;2023-02-20T17:47:24;21.03;;;8.70;;
40453;SDS011;26160;51.858;4.398;2023-02-20T17:49:52;11.53;;;6.97;;
40453;SDS011;26160;51.858;4.398;2023-02-20T17:52:20;22.47;;;9.57;;
40453;SDS011;26160;51.858;4.398;2023-02-20T17:54:48;22.00;;;8.33;;
40453;SDS011;26160;51.858;4.398;2023-02-20T17:57:16;28.13;;;9.47;;
40453;SDS011;26160;51.858;4.398;2023-02-20T17:59:44;24.37;;;8.77;;
40453;SDS011;26160;51.858;4.398;2023-02-20T18:02:22;24.80;;;9.50;;
40453;SDS011;26160;51.858;4.398;2023-02-20T18:04:48;18.53;;;9.53;;
40453;SDS011;26160;51.858;4.398;2023-02-20T18:07:14;21.70;;;9.07;;
40453;SDS011;26160;51.858;4.398;2023-02-20T18:09:41;23.90;;;10.40;;
40453;SDS011;26160;51.858;4.398;2023-02-20T18:12:09;26.83;;;10.20;;
40453;SDS011;26160;51.858;4.398;2023-02-20T18:14:35;24.80;;;10.60;;
40453;SDS011;26160;51.858;4.398;2023-02-20T18:17:01;25.80;;;12.13;;
40453;SDS011;26160;51.858;4.398;2023-02-20T18:19:27;31.20;;;13.90;;
40453;SDS011;26160;51.858;4.398;2023-02-20T18:21:54;22.47;;;12.03;;
40453;SDS011;26160;51.858;4.398;2023-02-20T18:24:22;29.30;;;13.20;;
40453;SDS011;26160;51.858;4.398;2023-02-20T18:26:49;25.03;;;12.23;;
40453;SDS011;26160;51.858;4.398;2023-02-20T18:29:16;23.00;;;12.00;;
40453;SDS011;26160;51.858;4.398;2023-02-20T18:31:42;21.13;;;11.80;;
40453;SDS011;26160;51.858;4.398;2023-02-20T18:34:08;26.17;;;11.30;;
40453;SDS011;26160;51.858;4.398;2023-02-20T18:36:34;19.80;;;11.40;;
40453;SDS011;26160;51.858;4.398;2023-02-20T18:39:02;26.77;;;12.53;;
40453;SDS011;26160;51.858;4.398;2023-02-20T18:41:29;23.03;;;12.40;;
40453;SDS011;26160;51.858;4.398;2023-02-20T18:43:55;26.53;;;13.93;;
40453;SDS011;26160;51.858;4.398;2023-02-20T18:46:29;26.83;;;12.97;;
40453;SDS011;26160;51.858;4.398;2023-02-20T18:49:00;20.17;;;10.50;;
40453;SDS011;26160;51.858;4.398;2023-02-20T18:51:30;21.07;;;12.43;;